sensor_id;sensor_type;location;lat;lon;timestamp;temperature;humidity
6443;DHT22;3254;47.372;8.512;2022-09-30T00:02:27;9.50;99.90
6443;DHT22;3254;47.372;8.512;2022-09-30T00:04:53;9.60;99.90
6443;DHT22;3254;47.372;8.512;2022-09-30T00:07:20;9.50;99.90
6443;DHT22;3254;47.372;8.512;2022-09-30T00:09:47;9.50;99.90
6443;DHT22;3254;47.372;8.512;2022-09-30T00:12:20;9.50;99.90
6443;DHT22;3254;47.372;8.512;2022-09-30T00:14:50;9.50;99.90
6443;DHT22;3254;47.372;8.512;2022-09-30T00:17:18;9.60;99.90
6443;DHT22;3254;47.372;8.512;2022-09-30T00:19:45;9.60;99.90
6443;DHT22;3254;47.372;8.512;2022-09-30T00:22:12;9.60;99.90
6443;DHT22;3254;47.372;8.512;2022-09-30T00:24:38;9.60;99.90
6443;DHT22;3254;47.372;8.512;2022-09-30T00:27:04;9.60;99.90
6443;DHT22;3254;47.372;8.512;2022-09-30T00:29:30;9.60;99.90
6443;DHT22;3254;47.372;8.512;2022-09-30T00:31:55;9.60;99.90
6443;DHT22;3254;47.372;8.512;2022-09-30T00:34:21;9.60;99.90
6443;DHT22;3254;47.372;8.512;2022-09-30T00:36:49;9.70;99.90
6443;DHT22;3254;47.372;8.512;2022-09-30T00:39:17;9.70;99.90
6443;DHT22;3254;47.372;8.512;2022-09-30T00:41:45;9.70;99.90
6443;DHT22;3254;47.372;8.512;2022-09-30T00:44:46;9.70;99.90
6443;DHT22;3254;47.372;8.512;2022-09-30T00:49:59;9.70;99.90
6443;DHT22;3254;47.372;8.512;2022-09-30T00:52:27;9.70;99.90
6443;DHT22;3254;47.372;8.512;2022-09-30T00:54:54;9.70;99.90
6443;DHT22;3254;47.372;8.512;2022-09-30T00:57:23;9.70;99.90
6443;DHT22;3254;47.372;8.512;2022-09-30T00:59:50;9.70;99.90
6443;DHT22;3254;47.372;8.512;2022-09-30T01:02:16;9.70;99.90
6443;DHT22;3254;47.372;8.512;2022-09-30T01:04:43;9.70;99.90
6443;DHT22;3254;47.372;8.512;2022-09-30T01:07:10;9.70;99.90
6443;DHT22;3254;47.372;8.512;2022-09-30T01:09:39;9.80;99.90
6443;DHT22;3254;47.372;8.512;2022-09-30T01:12:11;9.80;99.90
6443;DHT22;3254;47.372;8.512;2022-09-30T01:14:40;9.80;99.90
6443;DHT22;3254;47.372;8.512;2022-09-30T01:33:44;9.70;99.90
6443;DHT22;3254;47.372;8.512;2022-09-30T01:36:28;9.70;99.90
6443;DHT22;3254;47.372;8.512;2022-09-30T01:39:28;9.70;99.90
6443;DHT22;3254;47.372;8.512;2022-09-30T01:47:36;9.70;99.90
6443;DHT22;3254;47.372;8.512;2022-09-30T01:52:56;9.70;99.90
6443;DHT22;3254;47.372;8.512;2022-09-30T01:55:37;9.70;99.90
6443;DHT22;3254;47.372;8.512;2022-09-30T01:58:12;9.60;99.90
6443;DHT22;3254;47.372;8.512;2022-09-30T02:00:43;9.60;99.90
6443;DHT22;3254;47.372;8.512;2022-09-30T02:03:17;9.60;99.90
6443;DHT22;3254;47.372;8.512;2022-09-30T02:06:00;9.60;99.90
6443;DHT22;3254;47.372;8.512;2022-09-30T02:08:56;9.60;99.90
6443;DHT22;3254;47.372;8.512;2022-09-30T02:11:32;9.60;99.90
6443;DHT22;3254;47.372;8.512;2022-09-30T02:14:09;9.60;99.90
6443;DHT22;3254;47.372;8.512;2022-09-30T02:16:45;9.60;99.90
6443;DHT22;3254;47.372;8.512;2022-09-30T02:19:19;9.70;99.90
6443;DHT22;3254;47.372;8.512;2022-09-30T02:21:56;9.60;99.90
6443;DHT22;3254;47.372;8.512;2022-09-30T02:24:24;9.60;99.90
6443;DHT22;3254;47.372;8.512;2022-09-30T02:26:55;9.60;99.90
6443;DHT22;3254;47.372;8.512;2022-09-30T02:29:28;9.60;99.90
6443;DHT22;3254;47.372;8.512;2022-09-30T02:32:01;9.60;99.90
6443;DHT22;3254;47.372;8.512;2022-09-30T02:34:38;9.70;99.90
6443;DHT22;3254;47.372;8.512;2022-09-30T02:37:13;9.70;99.90
6443;DHT22;3254;47.372;8.512;2022-09-30T02:42:45;9.60;99.90
6443;DHT22;3254;47.372;8.512;2022-09-30T02:45:14;9.60;99.90
6443;DHT22;3254;47.372;8.512;2022-09-30T02:50:42;9.70;99.90
6443;DHT22;3254;47.372;8.512;2022-09-30T02:58:36;9.60;99.90
6443;DHT22;3254;47.372;8.512;2022-09-30T03:01:15;9.60;99.90
6443;DHT22;3254;47.372;8.512;2022-09-30T03:03:58;9.60;99.90
6443;DHT22;3254;47.372;8.512;2022-09-30T03:06:25;9.60;99.90
6443;DHT22;3254;47.372;8.512;2022-09-30T03:08:52;9.60;99.90
6443;DHT22;3254;47.372;8.512;2022-09-30T03:11:21;9.60;99.90
6443;DHT22;3254;47.372;8.512;2022-09-30T03:13:54;9.50;99.90
6443;DHT22;3254;47.372;8.512;2022-09-30T03:23:03;9.50;99.90
6443;DHT22;3254;47.372;8.512;2022-09-30T03:25:57;9.50;99.90
6443;DHT22;3254;47.372;8.512;2022-09-30T03:40:35;9.50;99.90
6443;DHT22;3254;47.372;8.512;2022-09-30T03:43:15;9.50;99.90
6443;DHT22;3254;47.372;8.512;2022-09-30T03:46:33;9.50;99.90
6443;DHT22;3254;47.372;8.512;2022-09-30T03:48:35;9.50;99.90
6443;DHT22;3254;47.372;8.512;2022-09-30T03:51:05;9.50;99.90
6443;DHT22;3254;47.372;8.512;2022-09-30T03:53:42;9.60;99.90
6443;DHT22;3254;47.372;8.512;2022-09-30T03:56:11;9.60;99.90
6443;DHT22;3254;47.372;8.512;2022-09-30T03:58:42;9.60;99.90
6443;DHT22;3254;47.372;8.512;2022-09-30T04:01:31;9.50;99.90
6443;DHT22;3254;47.372;8.512;2022-09-30T04:03:59;9.50;99.90
6443;DHT22;3254;47.372;8.512;2022-09-30T04:06:24;9.50;99.90
6443;DHT22;3254;47.372;8.512;2022-09-30T04:08:50;9.50;99.90
6443;DHT22;3254;47.372;8.512;2022-09-30T04:11:20;9.50;99.90
6443;DHT22;3254;47.372;8.512;2022-09-30T04:13:49;9.50;99.90
6443;DHT22;3254;47.372;8.512;2022-09-30T04:16:15;9.60;99.90
6443;DHT22;3254;47.372;8.512;2022-09-30T04:18:40;9.50;99.90
6443;DHT22;3254;47.372;8.512;2022-09-30T04:21:12;9.60;99.90
6443;DHT22;3254;47.372;8.512;2022-09-30T04:23:39;9.50;99.90
6443;DHT22;3254;47.372;8.512;2022-09-30T04:26:10;9.50;99.90
6443;DHT22;3254;47.372;8.512;2022-09-30T04:28:37;9.50;99.90
6443;DHT22;3254;47.372;8.512;2022-09-30T04:31:04;9.60;99.90
6443;DHT22;3254;47.372;8.512;2022-09-30T04:33:31;9.60;99.90
6443;DHT22;3254;47.372;8.512;2022-09-30T04:35:58;9.60;99.90
6443;DHT22;3254;47.372;8.512;2022-09-30T04:38:25;9.60;99.90
6443;DHT22;3254;47.372;8.512;2022-09-30T04:40:54;9.60;99.90
6443;DHT22;3254;47.372;8.512;2022-09-30T04:43:22;9.60;99.90
6443;DHT22;3254;47.372;8.512;2022-09-30T04:45:49;9.60;99.90
6443;DHT22;3254;47.372;8.512;2022-09-30T04:48:17;9.50;99.90
6443;DHT22;3254;47.372;8.512;2022-09-30T04:50:43;9.60;99.90
6443;DHT22;3254;47.372;8.512;2022-09-30T04:53:29;9.50;99.90
6443;DHT22;3254;47.372;8.512;2022-09-30T04:55:59;9.50;99.90
6443;DHT22;3254;47.372;8.512;2022-09-30T04:58:26;9.60;99.90
6443;DHT22;3254;47.372;8.512;2022-09-30T05:01:04;9.60;99.90
6443;DHT22;3254;47.372;8.512;2022-09-30T05:03:33;9.60;99.90
6443;DHT22;3254;47.372;8.512;2022-09-30T05:06:02;9.60;99.90
6443;DHT22;3254;47.372;8.512;2022-09-30T05:08:28;9.50;99.90
6443;DHT22;3254;47.372;8.512;2022-09-30T05:10:59;9.50;99.90
6443;DHT22;3254;47.372;8.512;2022-09-30T05:13:30;9.50;99.90
6443;DHT22;3254;47.372;8.512;2022-09-30T05:15:55;9.50;99.90
6443;DHT22;3254;47.372;8.512;2022-09-30T05:18:21;9.40;99.90
6443;DHT22;3254;47.372;8.512;2022-09-30T05:20:49;9.50;99.90
6443;DHT22;3254;47.372;8.512;2022-09-30T05:23:15;9.50;99.90
6443;DHT22;3254;47.372;8.512;2022-09-30T05:25:50;9.50;99.90
6443;DHT22;3254;47.372;8.512;2022-09-30T05:28:16;9.50;99.90
6443;DHT22;3254;47.372;8.512;2022-09-30T05:30:42;9.50;99.90
6443;DHT22;3254;47.372;8.512;2022-09-30T05:33:09;9.50;99.90
6443;DHT22;3254;47.372;8.512;2022-09-30T05:35:37;9.50;99.90
6443;DHT22;3254;47.372;8.512;2022-09-30T05:38:03;9.50;99.90
6443;DHT22;3254;47.372;8.512;2022-09-30T05:40:30;9.50;99.90
6443;DHT22;3254;47.372;8.512;2022-09-30T05:42:57;9.50;99.90
6443;DHT22;3254;47.372;8.512;2022-09-30T05:45:23;9.50;99.90
6443;DHT22;3254;47.372;8.512;2022-09-30T05:47:53;9.50;99.90
6443;DHT22;3254;47.372;8.512;2022-09-30T05:50:23;9.50;99.90
6443;DHT22;3254;47.372;8.512;2022-09-30T05:52:49;9.50;99.90
6443;DHT22;3254;47.372;8.512;2022-09-30T05:55:16;9.60;99.90
6443;DHT22;3254;47.372;8.512;2022-09-30T05:57:42;9.60;99.90
6443;DHT22;3254;47.372;8.512;2022-09-30T06:00:09;9.60;99.90
6443;DHT22;3254;47.372;8.512;2022-09-30T06:02:35;9.60;99.90
6443;DHT22;3254;47.372;8.512;2022-09-30T06:05:09;9.70;99.90
6443;DHT22;3254;47.372;8.512;2022-09-30T06:07:36;9.70;99.90
6443;DHT22;3254;47.372;8.512;2022-09-30T06:10:07;9.70;99.90
6443;DHT22;3254;47.372;8.512;2022-09-30T06:12:37;9.70;99.90
6443;DHT22;3254;47.372;8.512;2022-09-30T06:15:03;9.80;99.90
6443;DHT22;3254;47.372;8.512;2022-09-30T06:17:29;9.80;99.90
6443;DHT22;3254;47.372;8.512;2022-09-30T06:19:55;9.80;99.90
6443;DHT22;3254;47.372;8.512;2022-09-30T06:22:21;9.80;99.90
6443;DHT22;3254;47.372;8.512;2022-09-30T06:24:49;9.80;99.90
6443;DHT22;3254;47.372;8.512;2022-09-30T06:27:15;9.90;99.90
6443;DHT22;3254;47.372;8.512;2022-09-30T06:29:42;10.00;99.90
6443;DHT22;3254;47.372;8.512;2022-09-30T06:32:08;10.00;99.90
6443;DHT22;3254;47.372;8.512;2022-09-30T06:34:33;10.10;99.90
6443;DHT22;3254;47.372;8.512;2022-09-30T06:36:59;10.20;99.90
6443;DHT22;3254;47.372;8.512;2022-09-30T06:39:28;10.20;99.90
6443;DHT22;3254;47.372;8.512;2022-09-30T06:41:53;10.30;99.90
6443;DHT22;3254;47.372;8.512;2022-09-30T06:44:20;10.30;99.90
6443;DHT22;3254;47.372;8.512;2022-09-30T06:46:47;10.40;99.90
6443;DHT22;3254;47.372;8.512;2022-09-30T06:49:13;10.40;99.90
6443;DHT22;3254;47.372;8.512;2022-09-30T06:51:41;10.50;99.90
6443;DHT22;3254;47.372;8.512;2022-09-30T06:54:07;10.50;99.90
6443;DHT22;3254;47.372;8.512;2022-09-30T06:56:34;10.50;99.90
6443;DHT22;3254;47.372;8.512;2022-09-30T06:59:01;10.50;99.90
6443;DHT22;3254;47.372;8.512;2022-09-30T07:01:28;10.50;99.90
6443;DHT22;3254;47.372;8.512;2022-09-30T07:03:56;10.60;99.90
6443;DHT22;3254;47.372;8.512;2022-09-30T07:06:27;10.50;99.90
6443;DHT22;3254;47.372;8.512;2022-09-30T07:08:53;10.50;99.90
6443;DHT22;3254;47.372;8.512;2022-09-30T07:11:21;10.60;99.90
6443;DHT22;3254;47.372;8.512;2022-09-30T07:13:49;10.60;99.90
6443;DHT22;3254;47.372;8.512;2022-09-30T07:16:17;10.60;99.90
6443;DHT22;3254;47.372;8.512;2022-09-30T07:18:44;10.70;99.90
6443;DHT22;3254;47.372;8.512;2022-09-30T07:21:11;10.70;98.20
6443;DHT22;3254;47.372;8.512;2022-09-30T07:23:39;10.80;97.70
6443;DHT22;3254;47.372;8.512;2022-09-30T07:26:16;11.00;97.70
6443;DHT22;3254;47.372;8.512;2022-09-30T07:28:42;11.20;94.70
6443;DHT22;3254;47.372;8.512;2022-09-30T07:31:12;11.30;90.50
6443;DHT22;3254;47.372;8.512;2022-09-30T07:33:41;11.40;84.10
6443;DHT22;3254;47.372;8.512;2022-09-30T07:36:08;11.50;80.50
6443;DHT22;3254;47.372;8.512;2022-09-30T07:38:39;11.60;80.50
6443;DHT22;3254;47.372;8.512;2022-09-30T07:41:11;11.70;74.90
6443;DHT22;3254;47.372;8.512;2022-09-30T07:43:39;11.70;76.00
6443;DHT22;3254;47.372;8.512;2022-09-30T07:46:13;11.80;75.20
6443;DHT22;3254;47.372;8.512;2022-09-30T07:48:42;12.00;68.80
6443;DHT22;3254;47.372;8.512;2022-09-30T07:51:26;12.00;64.30
6443;DHT22;3254;47.372;8.512;2022-09-30T07:53:56;12.10;63.20
6443;DHT22;3254;47.372;8.512;2022-09-30T07:56:24;12.30;57.20
6443;DHT22;3254;47.372;8.512;2022-09-30T07:58:58;12.40;54.60
6443;DHT22;3254;47.372;8.512;2022-09-30T08:01:28;12.50;54.30
6443;DHT22;3254;47.372;8.512;2022-09-30T08:03:58;12.60;51.70
6443;DHT22;3254;47.372;8.512;2022-09-30T08:06:25;12.80;50.10
6443;DHT22;3254;47.372;8.512;2022-09-30T08:08:53;12.90;45.20
6443;DHT22;3254;47.372;8.512;2022-09-30T08:11:19;12.80;43.30
6443;DHT22;3254;47.372;8.512;2022-09-30T08:13:52;12.80;41.70
6443;DHT22;3254;47.372;8.512;2022-09-30T08:16:19;12.80;42.50
6443;DHT22;3254;47.372;8.512;2022-09-30T08:18:46;12.70;41.20
6443;DHT22;3254;47.372;8.512;2022-09-30T08:21:11;12.70;41.90
6443;DHT22;3254;47.372;8.512;2022-09-30T08:23:38;12.70;43.00
6443;DHT22;3254;47.372;8.512;2022-09-30T08:26:10;12.80;41.70
6443;DHT22;3254;47.372;8.512;2022-09-30T08:28:38;12.90;40.60
6443;DHT22;3254;47.372;8.512;2022-09-30T08:31:24;13.00;40.00
6443;DHT22;3254;47.372;8.512;2022-09-30T08:33:50;13.20;37.10
6443;DHT22;3254;47.372;8.512;2022-09-30T08:36:31;13.20;33.30
6443;DHT22;3254;47.372;8.512;2022-09-30T08:38:59;13.40;29.90
6443;DHT22;3254;47.372;8.512;2022-09-30T08:44:32;13.70;25.90
6443;DHT22;3254;47.372;8.512;2022-09-30T08:52:35;13.90;20.80
6443;DHT22;3254;47.372;8.512;2022-09-30T08:55:03;13.90;20.60
6443;DHT22;3254;47.372;8.512;2022-09-30T08:57:39;13.90;19.80
6443;DHT22;3254;47.372;8.512;2022-09-30T09:00:11;13.90;18.80
6443;DHT22;3254;47.372;8.512;2022-09-30T09:02:49;13.70;18.40
6443;DHT22;3254;47.372;8.512;2022-09-30T09:05:43;13.60;18.00
6443;DHT22;3254;47.372;8.512;2022-09-30T09:11:10;13.50;19.80
6443;DHT22;3254;47.372;8.512;2022-09-30T09:19:14;13.30;21.40
6443;DHT22;3254;47.372;8.512;2022-09-30T09:22:08;13.10;21.70
6443;DHT22;3254;47.372;8.512;2022-09-30T09:24:41;13.30;20.80
6443;DHT22;3254;47.372;8.512;2022-09-30T09:27:40;13.40;21.30
6443;DHT22;3254;47.372;8.512;2022-09-30T09:30:16;13.60;19.80
6443;DHT22;3254;47.372;8.512;2022-09-30T09:44:16;13.90;17.10
6443;DHT22;3254;47.372;8.512;2022-09-30T09:46:49;14.00;15.30
6443;DHT22;3254;47.372;8.512;2022-09-30T09:49:25;14.10;13.60
6443;DHT22;3254;47.372;8.512;2022-09-30T09:54:24;13.80;14.60
6443;DHT22;3254;47.372;8.512;2022-09-30T09:56:52;13.70;14.60
6443;DHT22;3254;47.372;8.512;2022-09-30T09:59:19;13.80;14.40
6443;DHT22;3254;47.372;8.512;2022-09-30T10:01:52;13.90;15.00
6443;DHT22;3254;47.372;8.512;2022-09-30T10:04:24;14.40;12.20
6443;DHT22;3254;47.372;8.512;2022-09-30T10:07:11;14.40;11.80
6443;DHT22;3254;47.372;8.512;2022-09-30T10:09:40;14.20;10.60
6443;DHT22;3254;47.372;8.512;2022-09-30T10:17:21;15.00;6.20
6443;DHT22;3254;47.372;8.512;2022-09-30T10:22:41;15.40;1.00
6443;DHT22;3254;47.372;8.512;2022-09-30T10:27:54;16.10;1.00
6443;DHT22;3254;47.372;8.512;2022-09-30T10:30:31;16.50;1.00
6443;DHT22;3254;47.372;8.512;2022-09-30T10:32:59;17.20;1.00
6443;DHT22;3254;47.372;8.512;2022-09-30T10:35:29;17.70;1.00
6443;DHT22;3254;47.372;8.512;2022-09-30T10:37:57;17.90;1.00
6443;DHT22;3254;47.372;8.512;2022-09-30T10:40:27;18.20;1.00
6443;DHT22;3254;47.372;8.512;2022-09-30T10:42:54;18.60;1.00
6443;DHT22;3254;47.372;8.512;2022-09-30T10:45:31;18.40;1.00
6443;DHT22;3254;47.372;8.512;2022-09-30T10:48:05;18.40;1.00
6443;DHT22;3254;47.372;8.512;2022-09-30T10:50:32;18.60;1.00
6443;DHT22;3254;47.372;8.512;2022-09-30T10:53:16;18.40;1.00
6443;DHT22;3254;47.372;8.512;2022-09-30T10:55:44;18.00;1.00
6443;DHT22;3254;47.372;8.512;2022-09-30T11:01:22;17.60;1.00
6443;DHT22;3254;47.372;8.512;2022-09-30T11:04:00;17.40;1.00
6443;DHT22;3254;47.372;8.512;2022-09-30T11:06:37;17.40;1.00
6443;DHT22;3254;47.372;8.512;2022-09-30T11:09:25;17.40;1.00
6443;DHT22;3254;47.372;8.512;2022-09-30T11:11:59;17.60;1.00
6443;DHT22;3254;47.372;8.512;2022-09-30T11:19:32;17.20;1.00
6443;DHT22;3254;47.372;8.512;2022-09-30T11:22:31;16.90;1.00
6443;DHT22;3254;47.372;8.512;2022-09-30T11:24:58;16.90;1.00
6443;DHT22;3254;47.372;8.512;2022-09-30T11:27:33;17.30;1.00
6443;DHT22;3254;47.372;8.512;2022-09-30T11:30:28;17.60;1.00
6443;DHT22;3254;47.372;8.512;2022-09-30T11:41:43;19.10;1.00
6443;DHT22;3254;47.372;8.512;2022-09-30T11:44:22;19.50;1.00
6443;DHT22;3254;47.372;8.512;2022-09-30T11:49:31;19.50;1.00
6443;DHT22;3254;47.372;8.512;2022-09-30T11:52:24;19.20;1.00
6443;DHT22;3254;47.372;8.512;2022-09-30T12:00:17;18.90;1.00
6443;DHT22;3254;47.372;8.512;2022-09-30T12:05:26;18.50;1.00
6443;DHT22;3254;47.372;8.512;2022-09-30T12:08:10;18.20;1.00
6443;DHT22;3254;47.372;8.512;2022-09-30T12:11:01;18.80;1.00
6443;DHT22;3254;47.372;8.512;2022-09-30T12:13:40;19.00;1.00
6443;DHT22;3254;47.372;8.512;2022-09-30T12:16:19;18.60;1.00
6443;DHT22;3254;47.372;8.512;2022-09-30T12:18:52;18.60;1.00
6443;DHT22;3254;47.372;8.512;2022-09-30T12:23:58;18.60;1.00
6443;DHT22;3254;47.372;8.512;2022-09-30T12:26:28;19.00;1.00
6443;DHT22;3254;47.372;8.512;2022-09-30T12:29:06;19.20;1.00
6443;DHT22;3254;47.372;8.512;2022-09-30T12:40:19;18.40;1.00
6443;DHT22;3254;47.372;8.512;2022-09-30T12:48:23;18.50;1.00
6443;DHT22;3254;47.372;8.512;2022-09-30T12:50:54;18.40;1.00
6443;DHT22;3254;47.372;8.512;2022-09-30T12:53:30;17.90;1.00
6443;DHT22;3254;47.372;8.512;2022-09-30T12:56:04;17.60;1.00
6443;DHT22;3254;47.372;8.512;2022-09-30T12:58:37;17.50;1.00
6443;DHT22;3254;47.372;8.512;2022-09-30T13:01:30;17.70;1.00
6443;DHT22;3254;47.372;8.512;2022-09-30T13:19:36;18.00;1.00
6443;DHT22;3254;47.372;8.512;2022-09-30T13:40:54;17.60;1.00
6443;DHT22;3254;47.372;8.512;2022-09-30T13:45:53;18.00;1.00
6443;DHT22;3254;47.372;8.512;2022-09-30T13:48:35;18.10;1.00
6443;DHT22;3254;47.372;8.512;2022-09-30T13:51:07;18.00;1.00
6443;DHT22;3254;47.372;8.512;2022-09-30T13:53:41;17.90;1.00
6443;DHT22;3254;47.372;8.512;2022-09-30T13:56:31;18.10;1.00
6443;DHT22;3254;47.372;8.512;2022-09-30T13:59:59;18.00;1.00
6443;DHT22;3254;47.372;8.512;2022-09-30T14:08:18;17.90;1.00
6443;DHT22;3254;47.372;8.512;2022-09-30T14:19:35;18.20;1.00
6443;DHT22;3254;47.372;8.512;2022-09-30T14:22:05;18.50;1.00
6443;DHT22;3254;47.372;8.512;2022-09-30T14:24:34;18.90;1.00
6443;DHT22;3254;47.372;8.512;2022-09-30T14:29:44;18.60;1.00
6443;DHT22;3254;47.372;8.512;2022-09-30T14:32:16;18.50;1.00
6443;DHT22;3254;47.372;8.512;2022-09-30T14:34:44;18.60;1.00
6443;DHT22;3254;47.372;8.512;2022-09-30T14:37:41;18.50;1.00
6443;DHT22;3254;47.372;8.512;2022-09-30T14:40:15;18.70;1.00
6443;DHT22;3254;47.372;8.512;2022-09-30T14:42:42;18.50;1.00
6443;DHT22;3254;47.372;8.512;2022-09-30T14:45:22;18.20;1.00
6443;DHT22;3254;47.372;8.512;2022-09-30T14:47:52;18.00;1.00
6443;DHT22;3254;47.372;8.512;2022-09-30T14:50:24;17.60;1.00
6443;DHT22;3254;47.372;8.512;2022-09-30T14:52:51;17.80;1.00
6443;DHT22;3254;47.372;8.512;2022-09-30T14:55:39;17.60;1.00
6443;DHT22;3254;47.372;8.512;2022-09-30T15:03:26;17.20;1.00
6443;DHT22;3254;47.372;8.512;2022-09-30T15:05:55;16.90;1.00
6443;DHT22;3254;47.372;8.512;2022-09-30T15:08:22;16.80;1.00
6443;DHT22;3254;47.372;8.512;2022-09-30T15:10:52;16.50;1.00
6443;DHT22;3254;47.372;8.512;2022-09-30T15:13:22;16.30;1.00
6443;DHT22;3254;47.372;8.512;2022-09-30T15:15:48;16.30;1.00
6443;DHT22;3254;47.372;8.512;2022-09-30T15:18:45;16.10;1.00
6443;DHT22;3254;47.372;8.512;2022-09-30T15:21:14;16.10;1.00
6443;DHT22;3254;47.372;8.512;2022-09-30T15:23:46;16.10;1.00
6443;DHT22;3254;47.372;8.512;2022-09-30T15:26:14;16.10;1.00
6443;DHT22;3254;47.372;8.512;2022-09-30T15:28:42;15.90;1.00
6443;DHT22;3254;47.372;8.512;2022-09-30T15:31:25;15.80;1.00
6443;DHT22;3254;47.372;8.512;2022-09-30T15:34:14;15.80;1.00
6443;DHT22;3254;47.372;8.512;2022-09-30T15:36:41;15.80;1.00
6443;DHT22;3254;47.372;8.512;2022-09-30T15:39:21;15.80;1.00
6443;DHT22;3254;47.372;8.512;2022-09-30T15:41:48;15.80;1.00
6443;DHT22;3254;47.372;8.512;2022-09-30T15:44:17;15.80;1.00
6443;DHT22;3254;47.372;8.512;2022-09-30T15:47:11;15.80;1.00
6443;DHT22;3254;47.372;8.512;2022-09-30T15:49:45;15.90;1.00
6443;DHT22;3254;47.372;8.512;2022-09-30T15:52:38;15.90;1.00
6443;DHT22;3254;47.372;8.512;2022-09-30T15:55:34;15.90;1.00
6443;DHT22;3254;47.372;8.512;2022-09-30T15:58:00;15.70;1.00
6443;DHT22;3254;47.372;8.512;2022-09-30T16:00:38;15.50;1.00
6443;DHT22;3254;47.372;8.512;2022-09-30T16:03:26;15.30;1.00
6443;DHT22;3254;47.372;8.512;2022-09-30T16:06:54;15.30;1.00
6443;DHT22;3254;47.372;8.512;2022-09-30T16:08:53;15.40;1.00
6443;DHT22;3254;47.372;8.512;2022-09-30T16:11:39;15.30;1.00
6443;DHT22;3254;47.372;8.512;2022-09-30T16:14:16;15.20;1.00
6443;DHT22;3254;47.372;8.512;2022-09-30T16:16:51;15.10;1.00
6443;DHT22;3254;47.372;8.512;2022-09-30T16:19:28;15.00;1.00
6443;DHT22;3254;47.372;8.512;2022-09-30T16:21:56;14.80;1.00
6443;DHT22;3254;47.372;8.512;2022-09-30T16:26:52;14.60;1.00
6443;DHT22;3254;47.372;8.512;2022-09-30T16:29:20;14.50;1.00
6443;DHT22;3254;47.372;8.512;2022-09-30T16:31:49;14.30;1.00
6443;DHT22;3254;47.372;8.512;2022-09-30T16:34:28;14.20;1.00
6443;DHT22;3254;47.372;8.512;2022-09-30T16:37:08;14.10;1.00
6443;DHT22;3254;47.372;8.512;2022-09-30T16:39:36;14.00;1.00
6443;DHT22;3254;47.372;8.512;2022-09-30T16:42:02;14.00;1.00
6443;DHT22;3254;47.372;8.512;2022-09-30T16:44:30;14.00;1.00
6443;DHT22;3254;47.372;8.512;2022-09-30T16:47:01;13.90;1.00
6443;DHT22;3254;47.372;8.512;2022-09-30T16:49:27;13.80;1.00
6443;DHT22;3254;47.372;8.512;2022-09-30T16:51:54;13.70;1.00
6443;DHT22;3254;47.372;8.512;2022-09-30T16:54:20;13.60;1.00
6443;DHT22;3254;47.372;8.512;2022-09-30T16:56:46;13.70;1.00
6443;DHT22;3254;47.372;8.512;2022-09-30T16:59:15;13.50;1.00
6443;DHT22;3254;47.372;8.512;2022-09-30T17:01:42;13.40;1.00
6443;DHT22;3254;47.372;8.512;2022-09-30T17:04:08;13.40;1.00
6443;DHT22;3254;47.372;8.512;2022-09-30T17:06:35;13.30;1.00
6443;DHT22;3254;47.372;8.512;2022-09-30T17:09:01;13.30;1.00
6443;DHT22;3254;47.372;8.512;2022-09-30T17:11:29;13.30;1.00
6443;DHT22;3254;47.372;8.512;2022-09-30T17:14:00;13.20;1.00
6443;DHT22;3254;47.372;8.512;2022-09-30T17:16:26;13.20;1.00
6443;DHT22;3254;47.372;8.512;2022-09-30T17:18:52;13.20;1.00
6443;DHT22;3254;47.372;8.512;2022-09-30T17:21:19;13.10;1.00
6443;DHT22;3254;47.372;8.512;2022-09-30T17:23:48;13.00;1.00
6443;DHT22;3254;47.372;8.512;2022-09-30T17:26:14;13.00;1.00
6443;DHT22;3254;47.372;8.512;2022-09-30T17:28:41;13.00;1.00
6443;DHT22;3254;47.372;8.512;2022-09-30T17:31:07;12.90;1.00
6443;DHT22;3254;47.372;8.512;2022-09-30T17:33:35;12.90;1.00
6443;DHT22;3254;47.372;8.512;2022-09-30T17:36:04;12.80;1.00
6443;DHT22;3254;47.372;8.512;2022-09-30T17:38:32;12.80;1.00
6443;DHT22;3254;47.372;8.512;2022-09-30T17:41:02;12.80;1.00
6443;DHT22;3254;47.372;8.512;2022-09-30T17:43:46;12.70;1.00
6443;DHT22;3254;47.372;8.512;2022-09-30T17:46:14;12.80;1.00
6443;DHT22;3254;47.372;8.512;2022-09-30T17:48:46;12.70;1.00
6443;DHT22;3254;47.372;8.512;2022-09-30T17:51:13;12.70;1.00
6443;DHT22;3254;47.372;8.512;2022-09-30T17:53:40;12.70;1.00
6443;DHT22;3254;47.372;8.512;2022-09-30T17:56:15;12.70;1.00
6443;DHT22;3254;47.372;8.512;2022-09-30T17:58:44;12.70;1.00
6443;DHT22;3254;47.372;8.512;2022-09-30T18:01:11;12.60;1.00
6443;DHT22;3254;47.372;8.512;2022-09-30T18:03:38;12.70;1.00
6443;DHT22;3254;47.372;8.512;2022-09-30T18:06:04;12.70;1.00
6443;DHT22;3254;47.372;8.512;2022-09-30T18:08:30;12.60;1.00
6443;DHT22;3254;47.372;8.512;2022-09-30T18:10:57;12.60;1.00
6443;DHT22;3254;47.372;8.512;2022-09-30T18:13:28;12.50;1.00
6443;DHT22;3254;47.372;8.512;2022-09-30T18:15:54;12.50;1.00
6443;DHT22;3254;47.372;8.512;2022-09-30T18:18:29;12.40;1.00
6443;DHT22;3254;47.372;8.512;2022-09-30T18:20:55;12.50;1.00
6443;DHT22;3254;47.372;8.512;2022-09-30T18:23:20;12.40;1.00
6443;DHT22;3254;47.372;8.512;2022-09-30T18:25:46;12.40;1.00
6443;DHT22;3254;47.372;8.512;2022-09-30T18:28:15;12.40;1.00
6443;DHT22;3254;47.372;8.512;2022-09-30T18:30:41;12.30;1.00
6443;DHT22;3254;47.372;8.512;2022-09-30T18:33:08;12.20;1.00
6443;DHT22;3254;47.372;8.512;2022-09-30T18:35:37;12.20;1.00
6443;DHT22;3254;47.372;8.512;2022-09-30T18:38:06;12.20;1.10
6443;DHT22;3254;47.372;8.512;2022-09-30T18:40:34;12.20;2.20
6443;DHT22;3254;47.372;8.512;2022-09-30T18:43:02;12.20;1.00
6443;DHT22;3254;47.372;8.512;2022-09-30T18:45:31;12.10;2.90
6443;DHT22;3254;47.372;8.512;2022-09-30T18:47:58;12.10;4.10
6443;DHT22;3254;47.372;8.512;2022-09-30T18:50:26;12.10;2.50
6443;DHT22;3254;47.372;8.512;2022-09-30T18:52:52;12.10;3.40
6443;DHT22;3254;47.372;8.512;2022-09-30T18:55:18;12.10;5.10
6443;DHT22;3254;47.372;8.512;2022-09-30T18:57:44;12.00;5.40
6443;DHT22;3254;47.372;8.512;2022-09-30T19:00:15;12.00;7.20
6443;DHT22;3254;47.372;8.512;2022-09-30T19:02:43;12.00;8.50
6443;DHT22;3254;47.372;8.512;2022-09-30T19:05:11;12.00;9.60
6443;DHT22;3254;47.372;8.512;2022-09-30T19:07:38;12.00;9.50
6443;DHT22;3254;47.372;8.512;2022-09-30T19:10:07;12.00;12.30
6443;DHT22;3254;47.372;8.512;2022-09-30T19:12:35;11.90;13.30
6443;DHT22;3254;47.372;8.512;2022-09-30T19:15:06;11.90;14.50
6443;DHT22;3254;47.372;8.512;2022-09-30T19:17:33;11.90;16.20
6443;DHT22;3254;47.372;8.512;2022-09-30T19:20:02;11.80;16.90
6443;DHT22;3254;47.372;8.512;2022-09-30T19:22:28;11.80;18.10
6443;DHT22;3254;47.372;8.512;2022-09-30T19:24:54;11.70;20.30
6443;DHT22;3254;47.372;8.512;2022-09-30T19:27:19;11.60;22.20
6443;DHT22;3254;47.372;8.512;2022-09-30T19:29:51;11.60;23.10
6443;DHT22;3254;47.372;8.512;2022-09-30T19:32:18;11.50;25.00
6443;DHT22;3254;47.372;8.512;2022-09-30T19:34:47;11.50;28.10
6443;DHT22;3254;47.372;8.512;2022-09-30T19:37:16;11.50;29.30
6443;DHT22;3254;47.372;8.512;2022-09-30T19:39:42;11.50;27.70
6443;DHT22;3254;47.372;8.512;2022-09-30T19:42:08;11.50;28.40
6443;DHT22;3254;47.372;8.512;2022-09-30T19:44:35;11.40;30.10
6443;DHT22;3254;47.372;8.512;2022-09-30T19:47:02;11.30;34.20
6443;DHT22;3254;47.372;8.512;2022-09-30T19:49:28;11.30;39.20
6443;DHT22;3254;47.372;8.512;2022-09-30T19:51:54;11.20;41.50
6443;DHT22;3254;47.372;8.512;2022-09-30T19:54:20;11.10;44.40
6443;DHT22;3254;47.372;8.512;2022-09-30T19:56:47;11.00;49.30
6443;DHT22;3254;47.372;8.512;2022-09-30T19:59:13;10.90;58.80
6443;DHT22;3254;47.372;8.512;2022-09-30T20:01:39;10.80;65.70
6443;DHT22;3254;47.372;8.512;2022-09-30T20:04:06;10.70;68.00
6443;DHT22;3254;47.372;8.512;2022-09-30T20:06:36;10.50;76.90
6443;DHT22;3254;47.372;8.512;2022-09-30T20:09:04;10.20;77.70